createdAt,value
2017-06-14T00:00:16.168Z,0
2017-06-14T00:01:16.808Z,0
2017-06-14T00:02:17.453Z,0
2017-06-14T00:03:18.095Z,0
2017-06-14T00:04:18.739Z,0
2017-06-14T00:05:19.580Z,0
2017-06-14T00:06:20.224Z,0
2017-06-14T00:07:20.870Z,0
2017-06-14T00:08:21.512Z,0
2017-06-14T00:09:22.156Z,0
2017-06-14T00:10:22.798Z,0
2017-06-14T00:11:23.442Z,0
2017-06-14T00:12:24.084Z,0
2017-06-14T00:13:24.877Z,0
2017-06-14T00:14:25.520Z,0
2017-06-14T00:15:26.165Z,0
2017-06-14T00:16:26.805Z,0
2017-06-14T00:17:27.450Z,0
2017-06-14T00:18:28.090Z,0
2017-06-14T00:19:28.732Z,0
2017-06-14T00:20:29.378Z,0
2017-06-14T00:21:30.020Z,0
2017-06-14T00:22:30.963Z,0
2017-06-14T00:23:31.604Z,0
2017-06-14T00:24:32.247Z,0
2017-06-14T00:25:32.889Z,0
2017-06-14T00:26:33.532Z,0
2017-06-14T00:27:34.176Z,0
2017-06-14T00:28:34.819Z,0
2017-06-14T00:29:35.465Z,0
2017-06-14T00:30:36.358Z,0
2017-06-14T00:31:36.998Z,0
2017-06-14T00:32:37.640Z,0
2017-06-14T00:33:38.281Z,0
2017-06-14T00:34:38.926Z,0
2017-06-14T00:35:39.571Z,0
2017-06-14T00:36:40.213Z,0
2017-06-14T00:37:40.854Z,0
2017-06-14T00:38:41.695Z,0
2017-06-14T00:39:42.343Z,0
2017-06-14T00:40:42.987Z,0
2017-06-14T00:41:43.631Z,0
2017-06-14T00:42:44.271Z,0
2017-06-14T00:43:44.916Z,0
2017-06-14T00:44:45.556Z,0
2017-06-14T00:45:46.198Z,0
2017-06-14T00:46:47.040Z,0
2017-06-14T00:47:47.683Z,0
2017-06-14T00:48:48.325Z,0
2017-06-14T00:49:48.969Z,0
2017-06-14T00:50:49.612Z,0
2017-06-14T00:51:50.253Z,0
2017-06-14T00:52:50.898Z,0
2017-06-14T00:53:51.543Z,0
2017-06-14T00:54:52.387Z,0
2017-06-14T00:55:53.030Z,0
2017-06-14T00:56:53.671Z,0
2017-06-14T00:57:54.313Z,0
2017-06-14T00:58:54.956Z,0
2017-06-14T00:59:55.600Z,0
2017-06-14T01:00:56.244Z,0
2017-06-14T01:01:56.886Z,0
2017-06-14T01:02:57.529Z,0
2017-06-14T01:03:58.321Z,0
2017-06-14T01:04:58.962Z,0
2017-06-14T01:05:59.603Z,0
2017-06-14T01:07:00.246Z,0
2017-06-14T01:08:00.887Z,0
2017-06-14T01:09:01.531Z,0
2017-06-14T01:10:02.175Z,0
2017-06-14T01:11:02.818Z,0
2017-06-14T01:12:03.661Z,0
2017-06-14T01:13:04.301Z,0
2017-06-14T01:14:04.945Z,0
2017-06-14T01:15:05.646Z,0
2017-06-14T01:16:06.287Z,0
2017-06-14T01:17:06.930Z,0
2017-06-14T01:18:07.574Z,0
2017-06-14T01:19:08.170Z,0
2017-06-14T01:20:08.962Z,0
2017-06-14T01:21:09.609Z,0
2017-06-14T01:22:10.252Z,0
2017-06-14T01:23:10.891Z,0
2017-06-14T01:24:11.532Z,0
2017-06-14T01:25:12.176Z,0
2017-06-14T01:26:12.816Z,0
2017-06-14T01:27:13.461Z,0
2017-06-14T01:28:14.303Z,0
2017-06-14T01:29:14.946Z,0
2017-06-14T01:30:15.588Z,0
2017-06-14T01:31:16.180Z,0
2017-06-14T01:32:16.823Z,0
2017-06-14T01:33:17.468Z,0
2017-06-14T01:34:18.111Z,0
2017-06-14T01:35:18.752Z,0
2017-06-14T01:36:19.398Z,0
2017-06-14T01:37:20.190Z,0
2017-06-14T01:38:20.831Z,0
2017-06-14T01:39:21.475Z,0
2017-06-14T01:40:22.115Z,0
2017-06-14T01:41:22.757Z,0
2017-06-14T01:42:23.399Z,0
2017-06-14T01:43:24.042Z,0
2017-06-14T01:44:24.685Z,0
2017-06-14T01:45:25.528Z,0
2017-06-14T01:46:26.170Z,0
2017-06-14T01:47:26.812Z,0
2017-06-14T01:48:27.457Z,0
2017-06-14T01:49:28.099Z,0
2017-06-14T01:50:28.740Z,0
2017-06-14T01:51:29.382Z,0
2017-06-14T01:52:30.026Z,0
2017-06-14T01:53:30.866Z,0
2017-06-14T01:54:31.513Z,0
2017-06-14T01:55:32.153Z,0
2017-06-14T01:56:32.794Z,0
2017-06-14T01:57:33.436Z,0
2017-06-14T01:58:34.078Z,0
2017-06-14T01:59:34.719Z,0
2017-06-14T02:00:35.363Z,0
2017-06-14T02:01:36.206Z,0
2017-06-14T02:02:36.851Z,0
2017-06-14T02:03:37.495Z,0
2017-06-14T02:04:38.136Z,0
2017-06-14T02:05:38.777Z,0
2017-06-14T02:06:39.422Z,0
2017-06-14T02:07:40.064Z,0
2017-06-14T02:08:40.708Z,0
2017-06-14T02:09:41.500Z,0
2017-06-14T02:10:42.143Z,0
2017-06-14T02:11:42.789Z,0
2017-06-14T02:12:43.428Z,0
2017-06-14T02:13:44.072Z,0
2017-06-14T02:14:44.713Z,0
2017-06-14T02:15:45.358Z,0
2017-06-14T02:16:46.000Z,0
2017-06-14T02:17:46.645Z,0
2017-06-14T02:18:47.489Z,0
2017-06-14T02:19:48.133Z,0
2017-06-14T02:20:48.772Z,0
2017-06-14T02:21:49.414Z,0
2017-06-14T02:22:50.057Z,0
2017-06-14T02:23:50.700Z,0
2017-06-14T02:24:51.345Z,0
2017-06-14T02:25:51.985Z,0
2017-06-14T02:26:52.776Z,0
2017-06-14T02:27:53.423Z,0
2017-06-14T02:28:54.067Z,0
2017-06-14T02:29:54.706Z,0
2017-06-14T02:30:55.351Z,0
2017-06-14T02:31:55.994Z,0
2017-06-14T02:32:56.636Z,0
2017-06-14T02:33:57.283Z,0
2017-06-14T02:34:58.185Z,0
2017-06-14T02:35:58.830Z,0
2017-06-14T02:36:59.474Z,0
2017-06-14T02:38:00.118Z,0
2017-06-14T02:39:00.763Z,0
2017-06-14T02:40:01.402Z,0
2017-06-14T02:41:02.045Z,0
2017-06-14T02:42:02.689Z,0
2017-06-14T02:43:03.481Z,0
2017-06-14T02:44:04.124Z,0
2017-06-14T02:45:04.766Z,0
2017-06-14T02:46:05.407Z,0
2017-06-14T02:47:06.050Z,0
2017-06-14T02:48:06.694Z,0
2017-06-14T02:49:07.336Z,0
2017-06-14T02:50:07.979Z,0
2017-06-14T02:51:08.622Z,0
2017-06-14T02:52:09.573Z,0
2017-06-14T02:53:10.205Z,0
2017-06-14T02:54:10.848Z,0
2017-06-14T02:55:11.491Z,0
2017-06-14T02:56:12.134Z,0
2017-06-14T02:57:12.776Z,0
2017-06-14T02:58:13.420Z,0
2017-06-14T02:59:14.062Z,0
2017-06-14T03:00:14.855Z,0
2017-06-14T03:01:15.498Z,0
2017-06-14T03:02:16.141Z,0
2017-06-14T03:03:16.784Z,0
2017-06-14T03:04:17.424Z,0
2017-06-14T03:05:18.066Z,0
2017-06-14T03:06:18.709Z,0
2017-06-14T03:07:19.351Z,0
2017-06-14T03:08:20.195Z,0
2017-06-14T03:09:20.839Z,0
2017-06-14T03:10:21.481Z,0
2017-06-14T03:11:22.127Z,0
2017-06-14T03:12:22.766Z,0
2017-06-14T03:13:23.408Z,0
2017-06-14T03:14:24.051Z,0
2017-06-14T03:15:24.695Z,0
2017-06-14T03:16:25.538Z,0
2017-06-14T03:17:26.240Z,0
2017-06-14T03:18:26.883Z,0
2017-06-14T03:19:27.527Z,0
2017-06-14T03:20:28.169Z,0
2017-06-14T03:21:28.809Z,0
2017-06-14T03:22:29.452Z,0
2017-06-14T03:23:30.098Z,0
2017-06-14T03:24:30.940Z,0
2017-06-14T03:25:31.585Z,0
2017-06-14T03:26:32.226Z,0
2017-06-14T03:27:32.867Z,0
2017-06-14T03:28:33.510Z,0
2017-06-14T03:29:34.153Z,0
2017-06-14T03:30:34.798Z,0
2017-06-14T03:31:35.438Z,0
2017-06-14T03:32:36.079Z,0
2017-06-14T03:33:36.922Z,0
2017-06-14T03:34:37.566Z,0
2017-06-14T03:35:38.206Z,0
2017-06-14T03:36:38.847Z,0
2017-06-14T03:37:39.489Z,0
2017-06-14T03:38:40.131Z,0
2017-06-14T03:39:40.774Z,0
2017-06-14T03:40:41.417Z,0
2017-06-14T03:41:42.262Z,0
2017-06-14T03:42:42.906Z,0
2017-06-14T03:43:43.549Z,0
2017-06-14T03:44:44.193Z,0
2017-06-14T03:45:44.834Z,0
2017-06-14T03:46:45.479Z,0
2017-06-14T03:47:46.121Z,0
2017-06-14T03:48:46.763Z,0
2017-06-14T03:49:47.606Z,0
2017-06-14T03:50:48.247Z,0
2017-06-14T03:51:48.890Z,0
2017-06-14T03:52:49.534Z,0
2017-06-14T03:53:50.178Z,0
2017-06-14T03:54:50.818Z,0
2017-06-14T03:55:51.461Z,0
2017-06-14T03:56:52.104Z,0
2017-06-14T03:57:52.894Z,0
2017-06-14T03:58:53.538Z,0
2017-06-14T03:59:54.181Z,0
2017-06-14T04:00:54.824Z,0
2017-06-14T04:01:55.466Z,0
2017-06-14T04:02:56.110Z,0
2017-06-14T04:03:56.752Z,0
2017-06-14T04:04:57.397Z,0
2017-06-14T04:05:58.041Z,0
2017-06-14T04:06:58.782Z,0
2017-06-14T04:07:59.423Z,0
2017-06-14T04:09:00.067Z,0
2017-06-14T04:10:00.706Z,0
2017-06-14T04:11:01.349Z,0
2017-06-14T04:12:09.594Z,0
2017-06-14T04:13:10.238Z,0
2017-06-14T04:14:10.880Z,0
2017-06-14T04:15:11.871Z,0
2017-06-14T04:16:12.515Z,0
2017-06-14T04:17:13.158Z,0
2017-06-14T04:18:13.802Z,0
2017-06-14T04:19:14.446Z,0
2017-06-14T04:20:15.089Z,0
2017-06-14T04:21:15.729Z,0
2017-06-14T04:22:16.372Z,0
2017-06-14T04:23:17.063Z,0
2017-06-14T04:24:17.703Z,0
2017-06-14T04:25:18.349Z,0
2017-06-14T04:26:18.990Z,0
2017-06-14T04:27:19.632Z,0
2017-06-14T04:28:20.274Z,0
2017-06-14T04:29:20.917Z,0
2017-06-14T04:30:21.564Z,0
2017-06-14T04:31:22.403Z,0
2017-06-14T04:32:23.045Z,0
2017-06-14T04:33:23.690Z,0
2017-06-14T04:34:24.332Z,0
2017-06-14T04:35:24.972Z,0
2017-06-14T04:36:25.613Z,0
2017-06-14T04:37:26.258Z,0
2017-06-14T04:38:26.899Z,0
2017-06-14T04:39:27.694Z,0
2017-06-14T04:40:28.338Z,0
2017-06-14T04:41:28.977Z,0
2017-06-14T04:42:29.620Z,0
2017-06-14T04:43:30.264Z,0
2017-06-14T04:44:30.906Z,0
2017-06-14T04:45:31.549Z,0
2017-06-14T04:46:32.190Z,0
2017-06-14T04:47:32.833Z,0
2017-06-14T04:48:33.733Z,0
2017-06-14T04:49:34.375Z,0
2017-06-14T04:50:35.016Z,0
2017-06-14T04:51:35.660Z,0
2017-06-14T04:52:36.305Z,0
2017-06-14T04:53:36.948Z,0
2017-06-14T04:54:37.589Z,0
2017-06-14T04:55:38.230Z,0
2017-06-14T04:56:39.072Z,0
2017-06-14T04:57:39.722Z,0
2017-06-14T04:58:40.359Z,0
2017-06-14T04:59:41.000Z,0
2017-06-14T05:00:41.643Z,0
2017-06-14T05:01:42.287Z,0
2017-06-14T05:02:42.927Z,0
2017-06-14T05:03:43.572Z,0
2017-06-14T05:04:44.364Z,0
2017-06-14T05:05:45.009Z,0
2017-06-14T05:06:45.650Z,0
2017-06-14T05:07:46.293Z,0
2017-06-14T05:08:46.936Z,0
2017-06-14T05:09:47.579Z,0
2017-06-14T05:10:48.222Z,0
2017-06-14T05:11:48.864Z,0
2017-06-14T05:12:49.706Z,0
2017-06-14T05:13:50.348Z,0
2017-06-14T05:14:50.992Z,0
2017-06-14T05:15:51.636Z,0
2017-06-14T05:16:52.273Z,0
2017-06-14T05:17:52.916Z,0
2017-06-14T05:18:53.562Z,0
2017-06-14T05:19:54.201Z,0
2017-06-14T05:20:55.044Z,0
2017-06-14T05:21:55.687Z,0
2017-06-14T05:22:56.280Z,0
2017-06-14T05:23:56.918Z,0
2017-06-14T05:24:57.562Z,0
2017-06-14T05:25:58.208Z,0
2017-06-14T05:26:58.847Z,0
2017-06-14T05:27:59.487Z,0
2017-06-14T05:29:00.132Z,0
2017-06-14T05:30:00.923Z,0
2017-06-14T05:31:01.564Z,0
2017-06-14T05:32:02.205Z,0
2017-06-14T05:33:02.849Z,0
2017-06-14T05:34:03.491Z,0
2017-06-14T05:35:04.132Z,0
2017-06-14T05:36:04.778Z,0
2017-06-14T05:37:05.417Z,0
2017-06-14T05:38:06.310Z,0
2017-06-14T05:39:06.954Z,0
2017-06-14T05:40:07.595Z,0
2017-06-14T05:41:08.239Z,0
2017-06-14T05:42:08.880Z,0
2017-06-14T05:43:09.527Z,0
2017-06-14T05:44:10.169Z,0
2017-06-14T05:45:10.808Z,0
2017-06-14T05:46:11.801Z,0
2017-06-14T05:47:12.441Z,0
2017-06-14T05:48:13.084Z,0
2017-06-14T05:49:13.727Z,0
2017-06-14T05:50:14.368Z,0
2017-06-14T05:51:15.013Z,0
2017-06-14T05:52:15.655Z,0
2017-06-14T05:53:16.298Z,0
2017-06-14T05:54:17.138Z,0
2017-06-14T05:55:17.780Z,0
2017-06-14T05:56:18.422Z,0
2017-06-14T05:57:19.066Z,0
2017-06-14T05:58:19.708Z,0
2017-06-14T05:59:20.351Z,0
2017-06-14T06:00:20.994Z,0
2017-06-14T06:01:21.637Z,0
2017-06-14T06:02:22.278Z,0
2017-06-14T06:03:23.071Z,0
2017-06-14T06:04:23.711Z,0
2017-06-14T06:05:24.356Z,0
2017-06-14T06:06:24.998Z,0
2017-06-14T06:07:25.641Z,0
2017-06-14T06:08:26.283Z,0
2017-06-14T06:09:26.926Z,0
2017-06-14T06:10:27.570Z,0
2017-06-14T06:11:28.462Z,0
2017-06-14T06:12:29.103Z,0
2017-06-14T06:13:29.744Z,0
2017-06-14T06:14:30.388Z,0
2017-06-14T06:15:31.033Z,0
2017-06-14T06:16:31.676Z,0
2017-06-14T06:17:32.319Z,0
2017-06-14T06:18:32.960Z,0
2017-06-14T06:19:33.802Z,0
2017-06-14T06:20:34.444Z,0
2017-06-14T06:21:35.092Z,0
2017-06-14T06:22:35.734Z,0
2017-06-14T06:23:36.374Z,0
2017-06-14T06:24:37.020Z,0
2017-06-14T06:25:37.661Z,0
2017-06-14T06:26:38.301Z,0
2017-06-14T06:27:39.095Z,0
2017-06-14T06:28:39.737Z,0
2017-06-14T06:29:40.380Z,0
2017-06-14T06:30:41.023Z,0
2017-06-14T06:31:41.662Z,0
2017-06-14T06:32:42.308Z,0
2017-06-14T06:33:42.951Z,0
2017-06-14T06:34:43.595Z,0
2017-06-14T06:35:44.636Z,0
2017-06-14T06:36:45.280Z,0
2017-06-14T06:37:45.922Z,0
2017-06-14T06:38:46.566Z,0
2017-06-14T06:39:47.206Z,0
2017-06-14T06:40:47.849Z,0
2017-06-14T06:41:48.490Z,0
2017-06-14T06:42:49.131Z,0
2017-06-14T06:43:49.776Z,0
2017-06-14T06:44:50.569Z,0
2017-06-14T06:45:56.064Z,0
2017-06-14T06:46:56.708Z,0
2017-06-14T06:47:57.352Z,0
2017-06-14T06:48:57.994Z,0
2017-06-14T06:49:58.637Z,0
2017-06-14T06:50:59.281Z,0
2017-06-14T06:51:59.922Z,0
2017-06-14T06:53:00.765Z,0
2017-06-14T06:54:01.407Z,0
2017-06-14T06:55:02.050Z,0
2017-06-14T06:56:02.689Z,0
2017-06-14T06:57:03.334Z,0
2017-06-14T06:58:03.974Z,0
2017-06-14T06:59:04.617Z,0
2017-06-14T07:00:05.260Z,0
2017-06-14T07:01:06.106Z,0
2017-06-14T07:02:06.748Z,0
2017-06-14T07:03:07.388Z,0
2017-06-14T07:04:08.031Z,0
2017-06-14T07:05:08.675Z,0
2017-06-14T07:06:09.320Z,0
2017-06-14T07:07:09.963Z,0
2017-06-14T07:08:10.602Z,0
2017-06-14T07:09:11.443Z,0
2017-06-14T07:10:12.090Z,0
2017-06-14T07:11:12.731Z,0
2017-06-14T07:12:13.374Z,0
2017-06-14T07:13:14.015Z,0
2017-06-14T07:14:14.658Z,0
2017-06-14T07:15:15.305Z,0
2017-06-14T07:16:15.943Z,0
2017-06-14T07:17:16.734Z,0
2017-06-14T07:18:17.376Z,0
2017-06-14T07:19:18.020Z,0
2017-06-14T07:20:18.660Z,0
2017-06-14T07:21:19.303Z,0
2017-06-14T07:22:19.947Z,0
2017-06-14T07:23:20.592Z,0
2017-06-14T07:24:21.233Z,0
2017-06-14T07:25:21.875Z,0
2017-06-14T07:26:22.717Z,0
2017-06-14T07:27:23.362Z,0
2017-06-14T07:28:23.954Z,0
2017-06-14T07:29:24.598Z,0
2017-06-14T07:30:25.239Z,0
2017-06-14T07:31:25.883Z,0
2017-06-14T07:32:26.526Z,0
2017-06-14T07:33:27.118Z,0
2017-06-14T07:34:27.909Z,0
2017-06-14T07:35:28.551Z,0
2017-06-14T07:36:29.194Z,0
2017-06-14T07:37:29.836Z,0
2017-06-14T07:38:30.478Z,0
2017-06-14T07:39:31.119Z,0
2017-06-14T07:40:31.763Z,0
2017-06-14T07:41:32.403Z,0
2017-06-14T07:42:33.246Z,0
2017-06-14T07:43:33.890Z,0
2017-06-14T07:44:34.529Z,0
2017-06-14T07:45:35.173Z,0
2017-06-14T07:46:35.814Z,0
2017-06-14T07:47:36.455Z,0
2017-06-14T07:48:37.099Z,8
2017-06-14T07:49:37.742Z,12
2017-06-14T07:50:38.538Z,12
2017-06-14T07:51:39.183Z,12
2017-06-14T07:52:39.824Z,12
2017-06-14T07:53:40.472Z,12
2017-06-14T07:54:41.171Z,12
2017-06-14T07:55:41.813Z,12
2017-06-14T07:56:42.457Z,12
2017-06-14T07:57:43.101Z,8
2017-06-14T07:58:43.745Z,8
2017-06-14T07:59:44.585Z,8
2017-06-14T08:00:45.228Z,8
2017-06-14T08:01:45.872Z,8
2017-06-14T08:02:46.514Z,8
2017-06-14T08:03:47.161Z,2060
2017-06-14T08:04:47.810Z,2072
2017-06-14T08:05:48.457Z,2308
2017-06-14T08:06:49.106Z,2580
2017-06-14T08:07:50.002Z,2672
2017-06-14T08:08:50.650Z,2676
2017-06-14T08:09:51.295Z,2452
2017-06-14T08:10:51.940Z,2216
2017-06-14T08:11:52.588Z,2104
2017-06-14T08:12:53.238Z,2004
2017-06-14T08:13:53.881Z,1992
2017-06-14T08:14:54.530Z,2004
2017-06-14T08:15:55.326Z,2048
2017-06-14T08:16:55.973Z,2076
2017-06-14T08:17:56.622Z,2092
2017-06-14T08:18:57.273Z,2076
2017-06-14T08:19:57.917Z,2268
2017-06-14T08:20:58.567Z,2492
2017-06-14T08:21:59.216Z,2400
2017-06-14T08:22:59.861Z,2280
2017-06-14T08:24:00.709Z,2152
2017-06-14T08:25:01.357Z,2144
2017-06-14T08:26:02.005Z,2116
2017-06-14T08:27:02.653Z,2128
2017-06-14T08:28:03.299Z,2152
2017-06-14T08:29:03.944Z,2132
2017-06-14T08:30:04.590Z,2160
2017-06-14T08:31:05.236Z,2152
2017-06-14T08:32:06.085Z,2156
2017-06-14T08:33:06.733Z,2168
2017-06-14T08:34:07.380Z,2164
2017-06-14T08:35:08.027Z,2184
2017-06-14T08:36:08.674Z,2184
2017-06-14T08:37:09.323Z,2164
2017-06-14T08:38:09.970Z,2124
2017-06-14T08:39:10.615Z,2148
2017-06-14T08:40:11.262Z,2168
2017-06-14T08:41:12.210Z,2236
2017-06-14T08:42:12.854Z,2260
2017-06-14T08:43:13.503Z,2232
2017-06-14T08:44:14.149Z,2236
2017-06-14T08:45:14.794Z,2232
2017-06-14T08:46:15.440Z,2264
2017-06-14T08:47:16.087Z,2276
2017-06-14T08:48:16.735Z,2256
2017-06-14T08:49:17.581Z,2292
2017-06-14T08:50:18.230Z,2264
2017-06-14T08:51:18.877Z,2272
2017-06-14T08:52:19.528Z,2284
2017-06-14T08:53:20.176Z,2264
2017-06-14T08:54:20.826Z,2308
2017-06-14T08:55:21.472Z,2312
2017-06-14T08:56:22.122Z,2312
2017-06-14T08:57:22.969Z,2324
2017-06-14T08:58:23.617Z,2376
2017-06-14T08:59:24.262Z,2360
2017-06-14T09:00:24.909Z,2368
2017-06-14T09:01:38.289Z,2404
2017-06-14T09:02:38.935Z,2352
2017-06-14T09:08:44.328Z,2420
2017-06-14T09:09:44.969Z,2420
2017-06-14T09:10:45.610Z,2432
2017-06-14T09:11:46.252Z,2460
2017-06-14T09:12:46.901Z,2488
2017-06-14T09:13:47.693Z,2516
2017-06-14T09:14:48.341Z,2524
2017-06-14T09:15:48.989Z,2496
2017-06-14T09:16:49.637Z,2500
2017-06-14T09:17:50.285Z,2548
2017-06-14T09:18:50.932Z,2508
2017-06-14T09:19:51.579Z,2528
2017-06-14T09:20:52.227Z,2592
2017-06-14T09:21:52.874Z,2580
2017-06-14T09:22:53.720Z,2564
2017-06-14T09:23:54.369Z,2632
2017-06-14T09:24:55.014Z,2620
2017-06-14T09:25:55.664Z,2640
2017-06-14T09:26:56.309Z,2628
2017-06-14T09:27:56.955Z,2640
2017-06-14T09:28:57.602Z,2632
2017-06-14T09:29:58.247Z,2668
2017-06-14T09:30:59.244Z,2704
2017-06-14T09:31:59.893Z,2704
2017-06-14T09:33:00.537Z,2704
2017-06-14T09:34:01.188Z,2712
2017-06-14T09:35:01.835Z,2712
2017-06-14T09:36:02.480Z,2732
2017-06-14T09:37:03.129Z,2768
2017-06-14T09:38:03.775Z,2800
2017-06-14T09:39:04.627Z,2796
2017-06-14T09:40:05.271Z,2848
2017-06-14T09:41:05.918Z,2856
2017-06-14T09:42:06.565Z,2840
2017-06-14T09:43:07.210Z,2872
2017-06-14T09:44:07.855Z,2872
2017-06-14T09:45:08.503Z,2916
2017-06-14T09:46:09.150Z,2928
2017-06-14T09:47:10.097Z,2984
2017-06-14T09:48:10.744Z,3008
2017-06-14T09:49:11.391Z,3004
2017-06-14T09:50:12.038Z,3044
2017-06-14T09:51:12.684Z,3056
2017-06-14T09:52:13.333Z,3044
2017-06-14T09:53:13.979Z,3128
2017-06-14T09:54:14.628Z,3128
2017-06-14T09:55:15.477Z,3144
2017-06-14T09:56:16.125Z,3156
2017-06-14T09:57:16.770Z,3208
2017-06-14T09:58:17.419Z,3192
2017-06-14T09:59:18.066Z,3244
2017-06-14T10:00:18.713Z,3272
2017-06-14T10:01:19.359Z,3336
2017-06-14T10:02:20.006Z,3300
2017-06-14T10:03:20.654Z,3352
2017-06-14T10:04:21.502Z,3376
2017-06-14T10:05:22.153Z,3376
2017-06-14T10:06:22.802Z,3364
2017-06-14T10:07:23.450Z,3392
2017-06-14T10:08:24.100Z,3380
2017-06-14T10:09:24.748Z,3468
2017-06-14T10:10:25.399Z,3500
2017-06-14T10:11:26.047Z,3528
2017-06-14T10:12:26.847Z,3600
2017-06-14T10:13:27.496Z,3584
2017-06-14T10:14:28.141Z,3620
2017-06-14T10:15:28.788Z,3652
2017-06-14T10:16:29.475Z,3720
2017-06-14T10:17:30.087Z,3788
2017-06-14T10:18:30.736Z,3732
2017-06-14T10:19:31.381Z,3768
2017-06-14T10:20:32.328Z,3812
2017-06-14T10:21:32.977Z,3856
2017-06-14T10:22:33.625Z,3928
2017-06-14T10:23:34.275Z,4056
2017-06-14T10:24:34.921Z,4016
2017-06-14T10:25:35.569Z,4048
2017-06-14T10:26:36.218Z,4104
2017-06-14T10:27:36.866Z,4196
2017-06-14T10:28:37.815Z,4208
2017-06-14T10:29:38.464Z,4216
2017-06-14T10:30:39.112Z,4336
2017-06-14T10:31:39.762Z,4452
2017-06-14T10:32:40.414Z,4444
2017-06-14T10:33:41.059Z,4480
2017-06-14T10:34:41.714Z,4484
2017-06-14T10:35:42.356Z,4684
2017-06-14T10:36:43.005Z,4708
2017-06-14T10:37:43.853Z,4628
2017-06-14T10:38:44.503Z,4892
2017-06-14T10:39:45.153Z,5004
2017-06-14T10:40:45.802Z,5476
2017-06-14T10:41:46.451Z,5280
2017-06-14T10:42:47.102Z,5352
2017-06-14T10:43:47.751Z,5620
2017-06-14T10:44:48.402Z,5372
2017-06-14T10:45:49.202Z,5380
2017-06-14T10:46:49.850Z,5260
2017-06-14T10:47:50.503Z,5344
2017-06-14T10:48:51.205Z,5196
2017-06-14T10:49:51.854Z,5180
2017-06-14T10:50:52.505Z,6456
2017-06-14T10:51:53.154Z,5360
2017-06-14T10:52:53.803Z,5868
2017-06-14T10:53:54.656Z,5700
2017-06-14T10:54:55.305Z,5764
2017-06-14T10:55:55.951Z,5816
2017-06-14T10:56:56.651Z,5816
2017-06-14T10:57:57.300Z,6080
2017-06-14T10:58:57.948Z,5908
2017-06-14T10:59:58.598Z,5764
2017-06-14T11:00:59.245Z,6424
2017-06-14T11:02:00.044Z,6376
2017-06-14T11:03:01.301Z,6928
2017-06-14T11:04:01.950Z,7376
2017-06-14T11:05:02.601Z,6064
2017-06-14T11:06:03.250Z,7656
2017-06-14T11:07:03.898Z,7084
2017-06-14T11:08:04.548Z,6628
2017-06-14T11:09:05.197Z,6080
2017-06-14T11:10:06.046Z,5920
2017-06-14T11:11:06.696Z,6076
2017-06-14T11:12:07.346Z,6092
2017-06-14T11:13:07.993Z,6120
2017-06-14T11:14:08.643Z,6036
2017-06-14T11:15:09.243Z,6096
2017-06-14T11:16:09.896Z,6136
2017-06-14T11:17:10.545Z,6196
2017-06-14T11:18:11.196Z,6268
2017-06-14T11:19:11.996Z,6184
2017-06-14T11:20:12.648Z,6268
2017-06-14T11:21:13.297Z,6352
2017-06-14T11:22:13.946Z,6388
2017-06-14T11:23:14.596Z,6280
2017-06-14T11:24:15.250Z,6204
2017-06-14T11:25:15.897Z,6236
2017-06-14T11:26:16.545Z,6224
2017-06-14T11:27:17.398Z,6264
2017-06-14T11:28:18.045Z,6420
2017-06-14T11:29:18.696Z,6372
2017-06-14T11:30:19.345Z,6412
2017-06-14T11:31:19.997Z,6312
2017-06-14T11:32:20.648Z,6324
2017-06-14T11:33:21.298Z,6508
2017-06-14T11:34:21.950Z,6400
2017-06-14T11:35:22.848Z,6600
2017-06-14T11:36:23.500Z,6564
2017-06-14T11:37:24.150Z,6504
2017-06-14T11:38:24.801Z,6488
2017-06-14T11:39:25.454Z,6620
2017-06-14T11:40:26.104Z,6652
2017-06-14T11:41:26.757Z,6752
2017-06-14T11:42:27.409Z,6648
2017-06-14T11:43:28.210Z,6720
2017-06-14T11:44:28.859Z,6864
2017-06-14T11:45:29.511Z,6888
2017-06-14T11:46:30.157Z,6812
2017-06-14T11:47:30.808Z,6920
2017-06-14T11:48:31.458Z,6944
2017-06-14T11:49:32.107Z,6900
2017-06-14T11:50:32.760Z,7012
2017-06-14T11:51:33.412Z,6976
2017-06-14T11:52:34.261Z,7020
2017-06-14T11:53:34.866Z,7132
2017-06-14T11:54:35.517Z,7276
2017-06-14T11:55:36.169Z,7280
2017-06-14T11:56:36.820Z,7360
2017-06-14T11:57:37.472Z,7372
2017-06-14T11:58:38.127Z,7440
2017-06-14T11:59:38.777Z,7512
2017-06-14T12:00:39.581Z,7564
2017-06-14T12:01:40.233Z,7592
2017-06-14T12:02:40.881Z,7660
2017-06-14T12:03:41.534Z,7696
2017-06-14T12:04:42.184Z,7764
2017-06-14T12:05:42.833Z,7812
2017-06-14T12:06:43.484Z,7908
2017-06-14T12:07:44.135Z,7948
2017-06-14T12:08:45.040Z,7932
2017-06-14T12:09:45.692Z,7992
2017-06-14T12:10:46.295Z,8068
2017-06-14T12:11:46.944Z,8108
2017-06-14T12:12:47.597Z,8200
2017-06-14T12:13:48.249Z,8244
2017-06-14T12:14:48.904Z,8392
2017-06-14T12:15:49.555Z,8552
2017-06-14T12:16:50.407Z,8728
2017-06-14T12:17:51.061Z,8912
2017-06-14T12:18:51.716Z,9116
2017-06-14T12:19:52.369Z,9436
2017-06-14T12:20:53.025Z,9676
2017-06-14T12:21:53.681Z,9604
2017-06-14T12:22:54.336Z,9852
2017-06-14T12:23:54.988Z,9816
2017-06-14T12:24:55.792Z,9932
2017-06-14T12:25:56.446Z,10472
2017-06-14T12:26:57.099Z,10360
2017-06-14T12:27:57.752Z,10456
2017-06-14T12:28:58.407Z,10604
2017-06-14T12:29:59.061Z,10844
2017-06-14T12:30:59.714Z,10748
2017-06-14T12:32:00.370Z,10568
2017-06-14T12:33:01.026Z,10512
2017-06-14T12:34:02.036Z,10728
2017-06-14T12:35:02.699Z,10748
2017-06-14T12:36:03.344Z,10556
2017-06-14T12:37:03.998Z,10360
2017-06-14T12:38:04.655Z,10312
2017-06-14T12:39:05.260Z,10456
2017-06-14T12:40:05.915Z,10164
2017-06-14T12:41:06.571Z,10304
2017-06-14T12:42:07.372Z,9920
2017-06-14T12:43:08.028Z,9928
2017-06-14T12:44:08.681Z,9628
2017-06-14T12:45:09.337Z,9340
2017-06-14T12:46:09.995Z,9340
2017-06-14T12:47:10.648Z,9132
2017-06-14T12:48:11.304Z,8992
2017-06-14T12:49:11.956Z,8980
2017-06-14T12:50:12.809Z,8776
2017-06-14T12:51:13.463Z,8784
2017-06-14T12:52:14.118Z,8752
2017-06-14T12:53:14.772Z,8636
2017-06-14T12:54:15.426Z,8856
2017-06-14T12:55:16.080Z,8764
2017-06-14T12:56:16.735Z,8696
2017-06-14T12:57:17.390Z,8760
2017-06-14T12:58:18.247Z,8832
2017-06-14T12:59:18.898Z,8980
2017-06-14T13:00:19.552Z,8768
2017-06-14T13:01:20.205Z,9044
2017-06-14T13:02:20.856Z,9716
2017-06-14T13:03:21.513Z,8880
2017-06-14T13:04:22.161Z,9004
2017-06-14T13:05:22.818Z,9180
2017-06-14T13:06:23.471Z,11012
2017-06-14T13:07:24.475Z,9400
2017-06-14T13:08:25.130Z,10596
2017-06-14T13:09:25.786Z,10040
2017-06-14T13:10:26.444Z,12756
2017-06-14T13:11:27.156Z,11324
2017-06-14T13:12:27.811Z,12548
2017-06-14T13:13:28.467Z,10480
2017-06-14T13:14:29.118Z,9132
2017-06-14T13:15:29.922Z,8516
2017-06-14T13:16:30.579Z,10260
2017-06-14T13:17:31.234Z,10940
2017-06-14T13:18:31.890Z,9804
2017-06-14T13:19:32.549Z,10208
2017-06-14T13:20:33.203Z,11380
2017-06-14T13:21:33.857Z,10516
2017-06-14T13:22:34.511Z,9952
2017-06-14T13:23:35.510Z,9244
2017-06-14T13:24:36.166Z,10360
2017-06-14T13:25:36.819Z,10824
2017-06-14T13:26:37.474Z,9500
2017-06-14T13:27:38.130Z,12452
2017-06-14T13:28:38.784Z,10608
2017-06-14T13:29:39.440Z,10780
2017-06-14T13:30:40.091Z,10712
2017-06-14T13:31:40.946Z,9804
2017-06-14T13:32:41.601Z,10056
2017-06-14T13:33:42.251Z,9008
2017-06-14T13:34:42.904Z,10080
2017-06-14T13:35:43.555Z,9120
2017-06-14T13:36:44.209Z,8564
2017-06-14T13:37:44.861Z,9280
2017-06-14T13:38:45.513Z,9456
2017-06-14T13:39:46.366Z,7724
2017-06-14T13:40:47.017Z,8480
2017-06-14T13:41:47.670Z,8420
2017-06-14T13:42:48.323Z,8128
2017-06-14T13:43:48.974Z,8284
2017-06-14T13:44:49.624Z,8320
2017-06-14T13:45:50.280Z,7792
2017-06-14T13:46:50.932Z,7440
2017-06-14T13:47:51.581Z,7512
2017-06-14T13:48:52.433Z,7324
2017-06-14T13:49:53.084Z,7284
2017-06-14T13:50:53.738Z,7288
2017-06-14T13:51:54.397Z,7288
2017-06-14T13:52:55.105Z,7212
2017-06-14T13:53:55.755Z,7200
2017-06-14T13:54:56.407Z,7184
2017-06-14T13:55:57.059Z,7168
2017-06-14T13:56:57.963Z,7176
2017-06-14T13:57:58.614Z,7100
2017-06-14T13:58:59.265Z,7080
2017-06-14T13:59:59.916Z,7152
2017-06-14T14:01:00.520Z,7056
2017-06-14T14:02:01.174Z,7072
2017-06-14T14:03:01.828Z,6984
2017-06-14T14:04:02.483Z,7016
2017-06-14T14:05:03.286Z,6972
2017-06-14T14:06:03.938Z,6936
2017-06-14T14:07:04.542Z,6924
2017-06-14T14:08:05.193Z,6944
2017-06-14T14:09:05.846Z,6964
2017-06-14T14:10:06.501Z,6932
2017-06-14T14:11:07.151Z,6916
2017-06-14T14:12:07.806Z,6860
2017-06-14T14:13:08.658Z,6840
2017-06-14T14:14:09.310Z,6780
2017-06-14T14:15:09.966Z,6812
2017-06-14T14:16:10.614Z,6796
2017-06-14T14:17:11.267Z,6804
2017-06-14T14:18:11.919Z,6820
2017-06-14T14:19:12.578Z,6808